sensor_id;sensor_type;location;lat;lon;timestamp;P1;durP1;ratioP1;P2;durP2;ratioP2
5026;SDS011;2532;52.480;13.354;2024-02-28T00:00:00;32.43;;;14.90;;
5026;SDS011;2532;52.480;13.354;2024-02-28T00:02:28;43.47;;;17.40;;
5026;SDS011;2532;52.480;13.354;2024-02-28T00:04:55;28.93;;;14.30;;
5026;SDS011;2532;52.480;13.354;2024-02-28T00:07:24;36.40;;;15.40;;
5026;SDS011;2532;52.480;13.354;2024-02-28T00:09:51;35.50;;;14.73;;
5026;SDS011;2532;52.480;13.354;2024-02-28T00:12:22;32.27;;;14.13;;
5026;SDS011;2532;52.480;13.354;2024-02-28T00:14:50;25.73;;;13.17;;
5026;SDS011;2532;52.480;13.354;2024-02-28T00:17:18;41.47;;;18.73;;
5026;SDS011;2532;52.480;13.354;2024-02-28T00:19:45;33.20;;;14.37;;
5026;SDS011;2532;52.480;13.354;2024-02-28T00:22:12;33.40;;;13.73;;
5026;SDS011;2532;52.480;13.354;2024-02-28T00:24:40;34.10;;;15.10;;
5026;SDS011;2532;52.480;13.354;2024-02-28T00:27:07;30.73;;;14.20;;
5026;SDS011;2532;52.480;13.354;2024-02-28T00:29:34;30.13;;;14.50;;
5026;SDS011;2532;52.480;13.354;2024-02-28T00:32:01;34.17;;;14.93;;
5026;SDS011;2532;52.480;13.354;2024-02-28T00:34:30;32.80;;;15.40;;
5026;SDS011;2532;52.480;13.354;2024-02-28T00:36:57;34.00;;;14.80;;
5026;SDS011;2532;52.480;13.354;2024-02-28T00:39:23;38.83;;;16.70;;
5026;SDS011;2532;52.480;13.354;2024-02-28T00:41:53;34.13;;;14.67;;
5026;SDS011;2532;52.480;13.354;2024-02-28T00:44:20;36.03;;;16.00;;
5026;SDS011;2532;52.480;13.354;2024-02-28T00:46:47;37.40;;;15.20;;
5026;SDS011;2532;52.480;13.354;2024-02-28T00:49:14;34.27;;;14.00;;
5026;SDS011;2532;52.480;13.354;2024-02-28T00:51:42;39.47;;;16.97;;
5026;SDS011;2532;52.480;13.354;2024-02-28T00:54:09;28.87;;;14.90;;
5026;SDS011;2532;52.480;13.354;2024-02-28T00:56:38;34.30;;;15.80;;
5026;SDS011;2532;52.480;13.354;2024-02-28T00:59:05;34.77;;;16.30;;
5026;SDS011;2532;52.480;13.354;2024-02-28T01:01:35;35.53;;;15.77;;
5026;SDS011;2532;52.480;13.354;2024-02-28T01:04:02;29.60;;;15.27;;
5026;SDS011;2532;52.480;13.354;2024-02-28T01:06:29;34.40;;;14.67;;
5026;SDS011;2532;52.480;13.354;2024-02-28T01:08:57;48.90;;;15.50;;
5026;SDS011;2532;52.480;13.354;2024-02-28T01:11:24;34.03;;;15.10;;
5026;SDS011;2532;52.480;13.354;2024-02-28T01:13:51;35.50;;;15.30;;
5026;SDS011;2532;52.480;13.354;2024-02-28T01:16:19;35.30;;;15.13;;
5026;SDS011;2532;52.480;13.354;2024-02-28T01:18:46;31.53;;;15.80;;
5026;SDS011;2532;52.480;13.354;2024-02-28T01:21:13;30.13;;;14.50;;
5026;SDS011;2532;52.480;13.354;2024-02-28T01:23:40;33.70;;;15.53;;
5026;SDS011;2532;52.480;13.354;2024-02-28T01:26:08;52.40;;;16.30;;
5026;SDS011;2532;52.480;13.354;2024-02-28T01:28:35;43.47;;;16.40;;
5026;SDS011;2532;52.480;13.354;2024-02-28T01:31:02;42.17;;;16.03;;
5026;SDS011;2532;52.480;13.354;2024-02-28T01:33:30;45.53;;;19.67;;
5026;SDS011;2532;52.480;13.354;2024-02-28T01:35:57;38.87;;;18.37;;
5026;SDS011;2532;52.480;13.354;2024-02-28T01:38:24;47.73;;;21.00;;
5026;SDS011;2532;52.480;13.354;2024-02-28T01:40:51;34.20;;;14.87;;
5026;SDS011;2532;52.480;13.354;2024-02-28T01:43:20;36.77;;;16.10;;
5026;SDS011;2532;52.480;13.354;2024-02-28T01:45:47;43.50;;;19.07;;
5026;SDS011;2532;52.480;13.354;2024-02-28T01:48:14;38.40;;;16.97;;
5026;SDS011;2532;52.480;13.354;2024-02-28T01:50:41;35.53;;;17.43;;
5026;SDS011;2532;52.480;13.354;2024-02-28T01:53:08;35.57;;;15.60;;
5026;SDS011;2532;52.480;13.354;2024-02-28T01:55:36;34.47;;;14.77;;
5026;SDS011;2532;52.480;13.354;2024-02-28T01:58:04;37.60;;;16.10;;
5026;SDS011;2532;52.480;13.354;2024-02-28T02:00:33;34.90;;;15.17;;
5026;SDS011;2532;52.480;13.354;2024-02-28T02:03:00;35.43;;;15.13;;
5026;SDS011;2532;52.480;13.354;2024-02-28T02:05:28;30.10;;;14.40;;
5026;SDS011;2532;52.480;13.354;2024-02-28T02:07:55;32.87;;;14.63;;
5026;SDS011;2532;52.480;13.354;2024-02-28T02:10:24;27.60;;;14.07;;
5026;SDS011;2532;52.480;13.354;2024-02-28T02:12:51;31.03;;;13.67;;
5026;SDS011;2532;52.480;13.354;2024-02-28T02:15:18;35.90;;;14.30;;
5026;SDS011;2532;52.480;13.354;2024-02-28T02:17:47;39.27;;;14.70;;
5026;SDS011;2532;52.480;13.354;2024-02-28T02:20:14;31.30;;;13.93;;
5026;SDS011;2532;52.480;13.354;2024-02-28T02:22:43;35.13;;;15.67;;
5026;SDS011;2532;52.480;13.354;2024-02-28T02:25:10;38.23;;;14.47;;
5026;SDS011;2532;52.480;13.354;2024-02-28T02:27:37;32.70;;;15.97;;
5026;SDS011;2532;52.480;13.354;2024-02-28T02:30:04;27.13;;;13.43;;
5026;SDS011;2532;52.480;13.354;2024-02-28T02:32:32;29.53;;;13.43;;
5026;SDS011;2532;52.480;13.354;2024-02-28T02:34:59;26.57;;;13.17;;
5026;SDS011;2532;52.480;13.354;2024-02-28T02:37:26;24.67;;;11.60;;
5026;SDS011;2532;52.480;13.354;2024-02-28T02:39:54;17.63;;;11.00;;
5026;SDS011;2532;52.480;13.354;2024-02-28T02:42:21;22.47;;;11.10;;
5026;SDS011;2532;52.480;13.354;2024-02-28T02:44:48;21.57;;;11.23;;
5026;SDS011;2532;52.480;13.354;2024-02-28T02:47:15;18.20;;;10.90;;
5026;SDS011;2532;52.480;13.354;2024-02-28T02:49:42;21.00;;;11.87;;
5026;SDS011;2532;52.480;13.354;2024-02-28T02:52:08;20.07;;;9.70;;
5026;SDS011;2532;52.480;13.354;2024-02-28T02:54:36;18.03;;;8.97;;
5026;SDS011;2532;52.480;13.354;2024-02-28T02:57:04;18.37;;;9.57;;
5026;SDS011;2532;52.480;13.354;2024-02-28T02:59:31;18.20;;;10.10;;
5026;SDS011;2532;52.480;13.354;2024-02-28T03:01:58;19.37;;;9.77;;
5026;SDS011;2532;52.480;13.354;2024-02-28T03:04:25;21.90;;;9.23;;
5026;SDS011;2532;52.480;13.354;2024-02-28T03:06:52;19.33;;;9.37;;
5026;SDS011;2532;52.480;13.354;2024-02-28T03:09:19;14.00;;;7.70;;
5026;SDS011;2532;52.480;13.354;2024-02-28T03:11:46;15.33;;;8.30;;
5026;SDS011;2532;52.480;13.354;2024-02-28T03:14:19;17.57;;;8.63;;
5026;SDS011;2532;52.480;13.354;2024-02-28T03:16:47;17.20;;;7.30;;
5026;SDS011;2532;52.480;13.354;2024-02-28T03:19:14;13.07;;;7.80;;
5026;SDS011;2532;52.480;13.354;2024-02-28T03:21:41;13.30;;;7.80;;
5026;SDS011;2532;52.480;13.354;2024-02-28T03:24:08;17.23;;;8.13;;
5026;SDS011;2532;52.480;13.354;2024-02-28T03:26:35;16.20;;;8.40;;
5026;SDS011;2532;52.480;13.354;2024-02-28T03:29:02;14.50;;;8.70;;
5026;SDS011;2532;52.480;13.354;2024-02-28T03:31:31;13.50;;;8.10;;
5026;SDS011;2532;52.480;13.354;2024-02-28T03:33:58;16.70;;;8.27;;
5026;SDS011;2532;52.480;13.354;2024-02-28T03:36:24;13.30;;;7.90;;
5026;SDS011;2532;52.480;13.354;2024-02-28T03:38:52;14.00;;;8.50;;
5026;SDS011;2532;52.480;13.354;2024-02-28T03:41:19;15.67;;;8.60;;
5026;SDS011;2532;52.480;13.354;2024-02-28T03:43:46;11.10;;;7.57;;
5026;SDS011;2532;52.480;13.354;2024-02-28T03:46:13;12.60;;;7.77;;
5026;SDS011;2532;52.480;13.354;2024-02-28T03:48:41;13.17;;;7.73;;
5026;SDS011;2532;52.480;13.354;2024-02-28T03:51:08;14.30;;;7.90;;
5026;SDS011;2532;52.480;13.354;2024-02-28T03:53:35;14.80;;;7.50;;
5026;SDS011;2532;52.480;13.354;2024-02-28T03:56:02;11.47;;;6.77;;
5026;SDS011;2532;52.480;13.354;2024-02-28T03:58:30;12.17;;;8.17;;
5026;SDS011;2532;52.480;13.354;2024-02-28T04:00:57;14.30;;;8.00;;
5026;SDS011;2532;52.480;13.354;2024-02-28T04:03:23;14.90;;;8.93;;
5026;SDS011;2532;52.480;13.354;2024-02-28T04:05:51;15.83;;;7.43;;
5026;SDS011;2532;52.480;13.354;2024-02-28T04:08:18;14.93;;;9.23;;
5026;SDS011;2532;52.480;13.354;2024-02-28T04:10:45;15.13;;;8.90;;
5026;SDS011;2532;52.480;13.354;2024-02-28T04:13:12;16.13;;;7.77;;
5026;SDS011;2532;52.480;13.354;2024-02-28T04:15:39;10.90;;;6.47;;
5026;SDS011;2532;52.480;13.354;2024-02-28T04:18:06;11.43;;;7.00;;
5026;SDS011;2532;52.480;13.354;2024-02-28T04:20:34;14.60;;;8.13;;
5026;SDS011;2532;52.480;13.354;2024-02-28T04:23:02;14.10;;;7.57;;
5026;SDS011;2532;52.480;13.354;2024-02-28T04:25:30;12.07;;;6.93;;
5026;SDS011;2532;52.480;13.354;2024-02-28T04:27:57;14.20;;;7.00;;
5026;SDS011;2532;52.480;13.354;2024-02-28T04:30:24;11.80;;;7.00;;
5026;SDS011;2532;52.480;13.354;2024-02-28T04:32:51;11.03;;;7.43;;
5026;SDS011;2532;52.480;13.354;2024-02-28T04:35:18;12.23;;;6.73;;
5026;SDS011;2532;52.480;13.354;2024-02-28T04:37:45;9.67;;;6.43;;
5026;SDS011;2532;52.480;13.354;2024-02-28T04:40:13;14.43;;;8.10;;
5026;SDS011;2532;52.480;13.354;2024-02-28T04:42:41;14.77;;;8.20;;
5026;SDS011;2532;52.480;13.354;2024-02-28T04:45:08;15.00;;;8.43;;
5026;SDS011;2532;52.480;13.354;2024-02-28T04:47:35;20.30;;;8.57;;
5026;SDS011;2532;52.480;13.354;2024-02-28T04:50:03;19.60;;;9.20;;
5026;SDS011;2532;52.480;13.354;2024-02-28T04:52:31;12.70;;;8.10;;
5026;SDS011;2532;52.480;13.354;2024-02-28T04:54:58;13.40;;;9.33;;
5026;SDS011;2532;52.480;13.354;2024-02-28T04:57:26;12.07;;;8.30;;
5026;SDS011;2532;52.480;13.354;2024-02-28T04:59:53;13.30;;;7.40;;
5026;SDS011;2532;52.480;13.354;2024-02-28T05:02:20;13.53;;;7.20;;
5026;SDS011;2532;52.480;13.354;2024-02-28T05:04:47;11.30;;;7.10;;
5026;SDS011;2532;52.480;13.354;2024-02-28T05:07:15;10.03;;;6.30;;
5026;SDS011;2532;52.480;13.354;2024-02-28T05:09:42;12.13;;;7.53;;
5026;SDS011;2532;52.480;13.354;2024-02-28T05:12:10;12.10;;;8.70;;
5026;SDS011;2532;52.480;13.354;2024-02-28T05:14:39;9.50;;;6.90;;
5026;SDS011;2532;52.480;13.354;2024-02-28T05:17:06;13.53;;;8.80;;
5026;SDS011;2532;52.480;13.354;2024-02-28T05:19:33;10.00;;;6.80;;
5026;SDS011;2532;52.480;13.354;2024-02-28T05:22:00;10.40;;;7.30;;
5026;SDS011;2532;52.480;13.354;2024-02-28T05:24:28;12.10;;;7.23;;
5026;SDS011;2532;52.480;13.354;2024-02-28T05:26:55;13.33;;;8.30;;
5026;SDS011;2532;52.480;13.354;2024-02-28T05:29:21;13.80;;;8.73;;
5026;SDS011;2532;52.480;13.354;2024-02-28T05:31:50;18.50;;;11.40;;
5026;SDS011;2532;52.480;13.354;2024-02-28T05:34:16;18.10;;;9.10;;
5026;SDS011;2532;52.480;13.354;2024-02-28T05:36:43;16.30;;;10.63;;
5026;SDS011;2532;52.480;13.354;2024-02-28T05:39:10;13.70;;;8.83;;
5026;SDS011;2532;52.480;13.354;2024-02-28T05:41:37;22.37;;;11.63;;
5026;SDS011;2532;52.480;13.354;2024-02-28T05:44:04;18.57;;;10.97;;
5026;SDS011;2532;52.480;13.354;2024-02-28T05:46:31;31.47;;;21.67;;
5026;SDS011;2532;52.480;13.354;2024-02-28T05:48:59;21.23;;;13.30;;
5026;SDS011;2532;52.480;13.354;2024-02-28T05:51:26;30.70;;;18.87;;
5026;SDS011;2532;52.480;13.354;2024-02-28T05:53:53;34.97;;;17.83;;
5026;SDS011;2532;52.480;13.354;2024-02-28T05:56:20;26.50;;;15.77;;
5026;SDS011;2532;52.480;13.354;2024-02-28T05:58:47;22.20;;;12.10;;
5026;SDS011;2532;52.480;13.354;2024-02-28T06:01:15;26.40;;;12.90;;
5026;SDS011;2532;52.480;13.354;2024-02-28T06:03:44;25.23;;;15.13;;
5026;SDS011;2532;52.480;13.354;2024-02-28T06:06:13;25.90;;;12.13;;
5026;SDS011;2532;52.480;13.354;2024-02-28T06:08:40;17.07;;;11.07;;
5026;SDS011;2532;52.480;13.354;2024-02-28T06:11:07;22.77;;;12.40;;
5026;SDS011;2532;52.480;13.354;2024-02-28T06:13:34;19.60;;;11.13;;
5026;SDS011;2532;52.480;13.354;2024-02-28T06:16:02;17.47;;;11.00;;
5026;SDS011;2532;52.480;13.354;2024-02-28T06:18:29;17.10;;;10.90;;
5026;SDS011;2532;52.480;13.354;2024-02-28T06:20:58;19.33;;;9.77;;
5026;SDS011;2532;52.480;13.354;2024-02-28T06:23:27;17.40;;;10.00;;
5026;SDS011;2532;52.480;13.354;2024-02-28T06:25:54;17.67;;;9.37;;
5026;SDS011;2532;52.480;13.354;2024-02-28T06:28:21;15.33;;;9.30;;
5026;SDS011;2532;52.480;13.354;2024-02-28T06:30:48;17.60;;;9.63;;
5026;SDS011;2532;52.480;13.354;2024-02-28T06:33:15;14.30;;;9.33;;
5026;SDS011;2532;52.480;13.354;2024-02-28T06:35:41;14.00;;;8.83;;
5026;SDS011;2532;52.480;13.354;2024-02-28T06:38:08;16.23;;;8.87;;
5026;SDS011;2532;52.480;13.354;2024-02-28T06:40:37;16.40;;;9.83;;
5026;SDS011;2532;52.480;13.354;2024-02-28T06:43:04;16.70;;;11.17;;
5026;SDS011;2532;52.480;13.354;2024-02-28T06:45:31;11.63;;;7.20;;
5026;SDS011;2532;52.480;13.354;2024-02-28T06:47:57;13.33;;;7.80;;
5026;SDS011;2532;52.480;13.354;2024-02-28T06:50:24;15.50;;;8.77;;
5026;SDS011;2532;52.480;13.354;2024-02-28T06:52:51;20.53;;;8.57;;
5026;SDS011;2532;52.480;13.354;2024-02-28T06:55:19;13.67;;;8.00;;
5026;SDS011;2532;52.480;13.354;2024-02-28T06:57:47;13.53;;;8.40;;
5026;SDS011;2532;52.480;13.354;2024-02-28T07:00:14;13.30;;;8.17;;
5026;SDS011;2532;52.480;13.354;2024-02-28T07:02:43;18.77;;;11.77;;
5026;SDS011;2532;52.480;13.354;2024-02-28T07:05:10;20.50;;;9.13;;
5026;SDS011;2532;52.480;13.354;2024-02-28T07:07:37;14.03;;;8.03;;
5026;SDS011;2532;52.480;13.354;2024-02-28T07:10:03;15.20;;;9.17;;
5026;SDS011;2532;52.480;13.354;2024-02-28T07:12:31;13.60;;;8.57;;
5026;SDS011;2532;52.480;13.354;2024-02-28T07:14:59;16.77;;;11.13;;
5026;SDS011;2532;52.480;13.354;2024-02-28T07:17:26;18.67;;;12.17;;
5026;SDS011;2532;52.480;13.354;2024-02-28T07:19:53;14.63;;;8.50;;
5026;SDS011;2532;52.480;13.354;2024-02-28T07:22:20;14.83;;;8.93;;
5026;SDS011;2532;52.480;13.354;2024-02-28T07:24:47;16.27;;;9.83;;
5026;SDS011;2532;52.480;13.354;2024-02-28T07:27:14;16.23;;;8.70;;
5026;SDS011;2532;52.480;13.354;2024-02-28T07:29:41;16.90;;;9.23;;
5026;SDS011;2532;52.480;13.354;2024-02-28T07:32:10;15.80;;;9.30;;
5026;SDS011;2532;52.480;13.354;2024-02-28T07:34:37;18.07;;;11.57;;
5026;SDS011;2532;52.480;13.354;2024-02-28T07:37:04;15.87;;;11.13;;
5026;SDS011;2532;52.480;13.354;2024-02-28T07:39:30;22.77;;;9.10;;
5026;SDS011;2532;52.480;13.354;2024-02-28T07:41:57;18.57;;;10.00;;
5026;SDS011;2532;52.480;13.354;2024-02-28T07:44:26;14.47;;;8.40;;
5026;SDS011;2532;52.480;13.354;2024-02-28T07:46:55;13.73;;;9.03;;
5026;SDS011;2532;52.480;13.354;2024-02-28T07:49:24;13.30;;;8.30;;
5026;SDS011;2532;52.480;13.354;2024-02-28T07:51:51;13.50;;;8.33;;
5026;SDS011;2532;52.480;13.354;2024-02-28T07:54:18;15.27;;;7.93;;
5026;SDS011;2532;52.480;13.354;2024-02-28T07:56:45;14.87;;;8.10;;
5026;SDS011;2532;52.480;13.354;2024-02-28T07:59:12;13.20;;;8.67;;
5026;SDS011;2532;52.480;13.354;2024-02-28T08:01:38;10.00;;;6.30;;
5026;SDS011;2532;52.480;13.354;2024-02-28T08:04:05;16.23;;;8.10;;
5026;SDS011;2532;52.480;13.354;2024-02-28T08:06:33;11.10;;;7.77;;
5026;SDS011;2532;52.480;13.354;2024-02-28T08:09:00;12.83;;;8.30;;
5026;SDS011;2532;52.480;13.354;2024-02-28T08:11:29;16.70;;;8.50;;
5026;SDS011;2532;52.480;13.354;2024-02-28T08:13:56;11.27;;;6.90;;
5026;SDS011;2532;52.480;13.354;2024-02-28T08:16:23;16.00;;;8.50;;
5026;SDS011;2532;52.480;13.354;2024-02-28T08:18:50;13.60;;;7.97;;
5026;SDS011;2532;52.480;13.354;2024-02-28T08:21:16;12.20;;;8.23;;
5026;SDS011;2532;52.480;13.354;2024-02-28T08:23:46;12.10;;;8.37;;
5026;SDS011;2532;52.480;13.354;2024-02-28T08:26:13;14.87;;;7.90;;
5026;SDS011;2532;52.480;13.354;2024-02-28T08:28:40;13.73;;;8.17;;
5026;SDS011;2532;52.480;13.354;2024-02-28T08:31:07;11.70;;;8.03;;
5026;SDS011;2532;52.480;13.354;2024-02-28T08:33:34;10.93;;;7.23;;
5026;SDS011;2532;52.480;13.354;2024-02-28T08:36:01;12.60;;;7.07;;
5026;SDS011;2532;52.480;13.354;2024-02-28T08:38:28;11.53;;;7.97;;
5026;SDS011;2532;52.480;13.354;2024-02-28T08:40:56;12.90;;;8.43;;
5026;SDS011;2532;52.480;13.354;2024-02-28T08:43:23;9.63;;;6.73;;
5026;SDS011;2532;52.480;13.354;2024-02-28T08:45:50;12.00;;;6.30;;
5026;SDS011;2532;52.480;13.354;2024-02-28T08:48:19;12.47;;;7.40;;
5026;SDS011;2532;52.480;13.354;2024-02-28T08:50:46;11.00;;;6.90;;
5026;SDS011;2532;52.480;13.354;2024-02-28T08:53:13;12.63;;;8.50;;
5026;SDS011;2532;52.480;13.354;2024-02-28T08:55:39;15.10;;;8.57;;
5026;SDS011;2532;52.480;13.354;2024-02-28T08:58:08;17.73;;;9.97;;
5026;SDS011;2532;52.480;13.354;2024-02-28T09:00:35;17.83;;;9.57;;
5026;SDS011;2532;52.480;13.354;2024-02-28T09:03:03;14.47;;;9.37;;
5026;SDS011;2532;52.480;13.354;2024-02-28T09:05:30;15.23;;;10.70;;
5026;SDS011;2532;52.480;13.354;2024-02-28T09:07:57;17.67;;;11.43;;
5026;SDS011;2532;52.480;13.354;2024-02-28T09:10:24;19.93;;;11.03;;
5026;SDS011;2532;52.480;13.354;2024-02-28T09:12:51;20.33;;;12.43;;
5026;SDS011;2532;52.480;13.354;2024-02-28T09:15:19;19.47;;;11.90;;
5026;SDS011;2532;52.480;13.354;2024-02-28T09:17:46;23.63;;;12.23;;
5026;SDS011;2532;52.480;13.354;2024-02-28T09:20:13;26.30;;;11.93;;
5026;SDS011;2532;52.480;13.354;2024-02-28T09:22:40;21.10;;;11.20;;
5026;SDS011;2532;52.480;13.354;2024-02-28T09:25:08;20.20;;;12.60;;
5026;SDS011;2532;52.480;13.354;2024-02-28T09:27:34;28.00;;;13.13;;
5026;SDS011;2532;52.480;13.354;2024-02-28T09:30:02;24.23;;;10.90;;
5026;SDS011;2532;52.480;13.354;2024-02-28T09:32:30;24.43;;;11.40;;
5026;SDS011;2532;52.480;13.354;2024-02-28T09:34:57;24.40;;;13.70;;
5026;SDS011;2532;52.480;13.354;2024-02-28T09:37:24;34.10;;;21.00;;
5026;SDS011;2532;52.480;13.354;2024-02-28T09:39:51;28.10;;;16.40;;
5026;SDS011;2532;52.480;13.354;2024-02-28T09:42:18;26.67;;;16.50;;
5026;SDS011;2532;52.480;13.354;2024-02-28T09:44:45;22.23;;;11.63;;
5026;SDS011;2532;52.480;13.354;2024-02-28T09:47:12;28.20;;;14.93;;
5026;SDS011;2532;52.480;13.354;2024-02-28T09:49:42;21.40;;;12.67;;
5026;SDS011;2532;52.480;13.354;2024-02-28T09:52:09;28.30;;;15.77;;
5026;SDS011;2532;52.480;13.354;2024-02-28T09:54:36;31.13;;;13.30;;
5026;SDS011;2532;52.480;13.354;2024-02-28T09:57:03;25.93;;;14.77;;
5026;SDS011;2532;52.480;13.354;2024-02-28T09:59:31;22.53;;;13.10;;
5026;SDS011;2532;52.480;13.354;2024-02-28T10:02:01;25.97;;;16.30;;
5026;SDS011;2532;52.480;13.354;2024-02-28T10:04:29;27.40;;;12.90;;
5026;SDS011;2532;52.480;13.354;2024-02-28T10:06:59;27.10;;;14.10;;
5026;SDS011;2532;52.480;13.354;2024-02-28T10:09:38;30.37;;;16.60;;
5026;SDS011;2532;52.480;13.354;2024-02-28T10:12:05;26.33;;;14.53;;
5026;SDS011;2532;52.480;13.354;2024-02-28T10:14:32;23.67;;;12.47;;
5026;SDS011;2532;52.480;13.354;2024-02-28T10:16:59;22.23;;;12.00;;
5026;SDS011;2532;52.480;13.354;2024-02-28T10:19:27;22.77;;;12.90;;
5026;SDS011;2532;52.480;13.354;2024-02-28T10:21:54;26.80;;;13.50;;
5026;SDS011;2532;52.480;13.354;2024-02-28T10:24:25;25.60;;;14.60;;
5026;SDS011;2532;52.480;13.354;2024-02-28T10:26:52;26.10;;;12.93;;
5026;SDS011;2532;52.480;13.354;2024-02-28T10:29:21;25.80;;;13.63;;
5026;SDS011;2532;52.480;13.354;2024-02-28T10:31:48;27.10;;;15.23;;
5026;SDS011;2532;52.480;13.354;2024-02-28T10:34:15;24.00;;;13.60;;
5026;SDS011;2532;52.480;13.354;2024-02-28T10:36:43;30.83;;;14.47;;
5026;SDS011;2532;52.480;13.354;2024-02-28T10:39:11;29.77;;;17.40;;
5026;SDS011;2532;52.480;13.354;2024-02-28T10:41:40;31.07;;;17.47;;
5026;SDS011;2532;52.480;13.354;2024-02-28T10:44:08;27.10;;;13.67;;
5026;SDS011;2532;52.480;13.354;2024-02-28T10:46:35;28.57;;;13.30;;
5026;SDS011;2532;52.480;13.354;2024-02-28T10:49:04;27.67;;;14.10;;
5026;SDS011;2532;52.480;13.354;2024-02-28T10:51:34;25.43;;;13.30;;
5026;SDS011;2532;52.480;13.354;2024-02-28T10:54:07;24.53;;;13.97;;
5026;SDS011;2532;52.480;13.354;2024-02-28T10:56:36;29.33;;;14.80;;
5026;SDS011;2532;52.480;13.354;2024-02-28T10:59:06;20.87;;;12.73;;
5026;SDS011;2532;52.480;13.354;2024-02-28T11:01:34;24.03;;;14.10;;
5026;SDS011;2532;52.480;13.354;2024-02-28T11:04:02;26.60;;;13.50;;
5026;SDS011;2532;52.480;13.354;2024-02-28T11:06:30;19.50;;;12.50;;
5026;SDS011;2532;52.480;13.354;2024-02-28T11:08:58;23.93;;;13.50;;
5026;SDS011;2532;52.480;13.354;2024-02-28T11:11:29;23.90;;;13.30;;
5026;SDS011;2532;52.480;13.354;2024-02-28T11:13:57;21.40;;;10.97;;
5026;SDS011;2532;52.480;13.354;2024-02-28T11:16:28;26.87;;;15.90;;
5026;SDS011;2532;52.480;13.354;2024-02-28T11:18:56;29.70;;;13.77;;
5026;SDS011;2532;52.480;13.354;2024-02-28T11:21:24;26.30;;;14.53;;
5026;SDS011;2532;52.480;13.354;2024-02-28T11:23:51;32.07;;;19.20;;
5026;SDS011;2532;52.480;13.354;2024-02-28T11:26:23;25.63;;;13.43;;
5026;SDS011;2532;52.480;13.354;2024-02-28T11:28:50;21.60;;;11.77;;
5026;SDS011;2532;52.480;13.354;2024-02-28T11:31:17;28.40;;;14.83;;
5026;SDS011;2532;52.480;13.354;2024-02-28T11:33:45;23.50;;;13.50;;
5026;SDS011;2532;52.480;13.354;2024-02-28T11:36:12;24.83;;;13.63;;
5026;SDS011;2532;52.480;13.354;2024-02-28T11:38:39;20.30;;;11.50;;
5026;SDS011;2532;52.480;13.354;2024-02-28T11:41:07;21.13;;;12.57;;
5026;SDS011;2532;52.480;13.354;2024-02-28T11:43:34;22.57;;;12.37;;
5026;SDS011;2532;52.480;13.354;2024-02-28T11:46:01;25.30;;;12.70;;
5026;SDS011;2532;52.480;13.354;2024-02-28T11:48:33;20.67;;;11.10;;
5026;SDS011;2532;52.480;13.354;2024-02-28T11:51:02;23.63;;;12.43;;
5026;SDS011;2532;52.480;13.354;2024-02-28T11:53:29;19.87;;;11.67;;
5026;SDS011;2532;52.480;13.354;2024-02-28T11:55:56;22.43;;;11.00;;
5026;SDS011;2532;52.480;13.354;2024-02-28T11:58:22;21.77;;;13.30;;
5026;SDS011;2532;52.480;13.354;2024-02-28T12:00:50;25.33;;;12.60;;
5026;SDS011;2532;52.480;13.354;2024-02-28T12:03:21;32.03;;;16.97;;
5026;SDS011;2532;52.480;13.354;2024-02-28T12:05:48;22.07;;;12.73;;
5026;SDS011;2532;52.480;13.354;2024-02-28T12:08:18;25.60;;;16.00;;
5026;SDS011;2532;52.480;13.354;2024-02-28T12:10:45;20.87;;;12.67;;
5026;SDS011;2532;52.480;13.354;2024-02-28T12:13:15;20.93;;;13.40;;
5026;SDS011;2532;52.480;13.354;2024-02-28T12:15:43;20.37;;;11.27;;
5026;SDS011;2532;52.480;13.354;2024-02-28T12:18:10;20.53;;;11.83;;
5026;SDS011;2532;52.480;13.354;2024-02-28T12:20:36;20.07;;;10.77;;
5026;SDS011;2532;52.480;13.354;2024-02-28T12:23:03;22.83;;;11.13;;
5026;SDS011;2532;52.480;13.354;2024-02-28T12:25:32;21.47;;;12.07;;
5026;SDS011;2532;52.480;13.354;2024-02-28T12:27:59;19.23;;;11.60;;
5026;SDS011;2532;52.480;13.354;2024-02-28T12:30:26;24.80;;;11.97;;
5026;SDS011;2532;52.480;13.354;2024-02-28T12:32:53;21.60;;;10.57;;
5026;SDS011;2532;52.480;13.354;2024-02-28T12:35:20;19.80;;;10.97;;
5026;SDS011;2532;52.480;13.354;2024-02-28T12:37:47;23.10;;;12.20;;
5026;SDS011;2532;52.480;13.354;2024-02-28T12:40:16;19.90;;;11.80;;
5026;SDS011;2532;52.480;13.354;2024-02-28T12:42:45;23.37;;;12.70;;
5026;SDS011;2532;52.480;13.354;2024-02-28T12:45:12;23.37;;;13.00;;
5026;SDS011;2532;52.480;13.354;2024-02-28T12:47:39;23.97;;;12.47;;
5026;SDS011;2532;52.480;13.354;2024-02-28T12:50:06;20.43;;;12.37;;
5026;SDS011;2532;52.480;13.354;2024-02-28T12:52:34;25.30;;;12.87;;
5026;SDS011;2532;52.480;13.354;2024-02-28T12:55:01;21.87;;;12.93;;
5026;SDS011;2532;52.480;13.354;2024-02-28T12:57:28;20.27;;;11.10;;
5026;SDS011;2532;52.480;13.354;2024-02-28T12:59:57;23.20;;;11.43;;
5026;SDS011;2532;52.480;13.354;2024-02-28T13:02:23;20.87;;;12.27;;
5026;SDS011;2532;52.480;13.354;2024-02-28T13:04:50;23.17;;;11.83;;
5026;SDS011;2532;52.480;13.354;2024-02-28T13:07:17;23.40;;;13.13;;
5026;SDS011;2532;52.480;13.354;2024-02-28T13:09:47;25.33;;;12.60;;
5026;SDS011;2532;52.480;13.354;2024-02-28T13:12:15;20.07;;;12.43;;
5026;SDS011;2532;52.480;13.354;2024-02-28T13:14:42;23.37;;;11.93;;
5026;SDS011;2532;52.480;13.354;2024-02-28T13:17:10;24.63;;;12.50;;
5026;SDS011;2532;52.480;13.354;2024-02-28T13:19:38;22.33;;;11.40;;
5026;SDS011;2532;52.480;13.354;2024-02-28T13:22:04;21.80;;;12.67;;
5026;SDS011;2532;52.480;13.354;2024-02-28T13:24:31;31.93;;;11.43;;
5026;SDS011;2532;52.480;13.354;2024-02-28T13:27:00;19.67;;;11.43;;
5026;SDS011;2532;52.480;13.354;2024-02-28T13:29:27;22.17;;;12.13;;
5026;SDS011;2532;52.480;13.354;2024-02-28T13:31:56;19.73;;;11.60;;
5026;SDS011;2532;52.480;13.354;2024-02-28T13:34:24;24.87;;;13.30;;
5026;SDS011;2532;52.480;13.354;2024-02-28T13:36:51;26.30;;;11.60;;
5026;SDS011;2532;52.480;13.354;2024-02-28T13:39:18;20.30;;;12.83;;
5026;SDS011;2532;52.480;13.354;2024-02-28T13:41:45;25.97;;;11.73;;
5026;SDS011;2532;52.480;13.354;2024-02-28T13:44:16;24.93;;;13.10;;
5026;SDS011;2532;52.480;13.354;2024-02-28T13:46:44;23.17;;;12.07;;
5026;SDS011;2532;52.480;13.354;2024-02-28T13:49:11;26.40;;;13.23;;
5026;SDS011;2532;52.480;13.354;2024-02-28T13:51:40;21.53;;;12.20;;
5026;SDS011;2532;52.480;13.354;2024-02-28T13:54:08;18.23;;;10.77;;
5026;SDS011;2532;52.480;13.354;2024-02-28T13:56:35;18.33;;;10.00;;
5026;SDS011;2532;52.480;13.354;2024-02-28T13:59:02;21.00;;;11.23;;
5026;SDS011;2532;52.480;13.354;2024-02-28T14:01:29;21.27;;;10.73;;
5026;SDS011;2532;52.480;13.354;2024-02-28T14:03:58;17.23;;;10.13;;
5026;SDS011;2532;52.480;13.354;2024-02-28T14:06:25;16.70;;;10.50;;
5026;SDS011;2532;52.480;13.354;2024-02-28T14:08:53;25.00;;;12.13;;
5026;SDS011;2532;52.480;13.354;2024-02-28T14:11:20;19.10;;;10.77;;
5026;SDS011;2532;52.480;13.354;2024-02-28T14:13:48;18.93;;;11.07;;
5026;SDS011;2532;52.480;13.354;2024-02-28T14:16:15;21.13;;;11.50;;
5026;SDS011;2532;52.480;13.354;2024-02-28T14:18:44;21.17;;;10.97;;
5026;SDS011;2532;52.480;13.354;2024-02-28T14:21:11;20.33;;;9.97;;
5026;SDS011;2532;52.480;13.354;2024-02-28T14:23:38;20.67;;;10.93;;
5026;SDS011;2532;52.480;13.354;2024-02-28T14:26:07;16.93;;;10.40;;
5026;SDS011;2532;52.480;13.354;2024-02-28T14:28:34;19.33;;;11.10;;
5026;SDS011;2532;52.480;13.354;2024-02-28T14:31:01;17.53;;;10.70;;
5026;SDS011;2532;52.480;13.354;2024-02-28T14:33:29;18.90;;;11.17;;
5026;SDS011;2532;52.480;13.354;2024-02-28T14:35:58;15.97;;;11.00;;
5026;SDS011;2532;52.480;13.354;2024-02-28T14:38:25;19.40;;;10.00;;